sensor_id;sensor_type;location;lat;lon;timestamp;P1;durP1;ratioP1;P2;durP2;ratioP2
63284;SDS011;49409;55.708;37.522;2022-09-29T00:00:11;5.20;;;2.53;;
63284;SDS011;49409;55.708;37.522;2022-09-29T00:02:37;4.57;;;2.47;;
63284;SDS011;49409;55.708;37.522;2022-09-29T00:05:03;5.57;;;3.03;;
63284;SDS011;49409;55.708;37.522;2022-09-29T00:07:29;5.57;;;2.75;;
63284;SDS011;49409;55.708;37.522;2022-09-29T00:09:56;6.20;;;3.00;;
63284;SDS011;49409;55.708;37.522;2022-09-29T00:12:22;5.93;;;2.88;;
63284;SDS011;49409;55.708;37.522;2022-09-29T00:14:48;4.90;;;2.85;;
63284;SDS011;49409;55.708;37.522;2022-09-29T00:17:13;5.70;;;2.80;;
63284;SDS011;49409;55.708;37.522;2022-09-29T00:19:39;5.88;;;3.10;;
63284;SDS011;49409;55.708;37.522;2022-09-29T00:22:04;5.40;;;2.70;;
63284;SDS011;49409;55.708;37.522;2022-09-29T00:24:30;5.63;;;2.90;;
63284;SDS011;49409;55.708;37.522;2022-09-29T00:26:55;5.93;;;3.22;;
63284;SDS011;49409;55.708;37.522;2022-09-29T00:29:22;5.28;;;2.70;;
63284;SDS011;49409;55.708;37.522;2022-09-29T00:31:47;5.80;;;2.67;;
63284;SDS011;49409;55.708;37.522;2022-09-29T00:34:13;7.15;;;2.78;;
63284;SDS011;49409;55.708;37.522;2022-09-29T00:36:38;4.72;;;2.58;;
63284;SDS011;49409;55.708;37.522;2022-09-29T00:39:05;5.88;;;2.85;;
63284;SDS011;49409;55.708;37.522;2022-09-29T00:41:32;7.25;;;2.92;;
63284;SDS011;49409;55.708;37.522;2022-09-29T00:51:56;4.82;;;2.97;;
63284;SDS011;49409;55.708;37.522;2022-09-29T00:54:31;4.30;;;2.47;;
63284;SDS011;49409;55.708;37.522;2022-09-29T00:57:01;4.70;;;2.58;;
63284;SDS011;49409;55.708;37.522;2022-09-29T00:59:32;4.70;;;2.60;;
63284;SDS011;49409;55.708;37.522;2022-09-29T01:02:04;5.32;;;2.83;;
63284;SDS011;49409;55.708;37.522;2022-09-29T01:04:30;6.15;;;3.00;;
63284;SDS011;49409;55.708;37.522;2022-09-29T01:06:56;5.97;;;3.08;;
63284;SDS011;49409;55.708;37.522;2022-09-29T01:09:24;5.00;;;2.40;;
63284;SDS011;49409;55.708;37.522;2022-09-29T01:11:53;5.78;;;2.53;;
63284;SDS011;49409;55.708;37.522;2022-09-29T01:14:22;5.90;;;2.50;;
63284;SDS011;49409;55.708;37.522;2022-09-29T01:16:49;6.95;;;2.80;;
63284;SDS011;49409;55.708;37.522;2022-09-29T01:19:40;6.85;;;3.03;;
63284;SDS011;49409;55.708;37.522;2022-09-29T01:33:23;6.88;;;3.10;;
63284;SDS011;49409;55.708;37.522;2022-09-29T01:36:12;7.57;;;3.47;;
63284;SDS011;49409;55.708;37.522;2022-09-29T01:41:54;7.15;;;3.30;;
63284;SDS011;49409;55.708;37.522;2022-09-29T01:44:36;7.18;;;3.00;;
63284;SDS011;49409;55.708;37.522;2022-09-29T01:47:06;6.43;;;3.00;;
63284;SDS011;49409;55.708;37.522;2022-09-29T01:49:40;7.57;;;3.60;;
63284;SDS011;49409;55.708;37.522;2022-09-29T01:52:11;7.78;;;2.97;;
63284;SDS011;49409;55.708;37.522;2022-09-29T01:54:47;6.10;;;3.10;;
63284;SDS011;49409;55.708;37.522;2022-09-29T02:02:31;6.85;;;3.40;;
63284;SDS011;49409;55.708;37.522;2022-09-29T02:05:04;6.20;;;3.10;;
63284;SDS011;49409;55.708;37.522;2022-09-29T02:07:36;7.53;;;3.63;;
63284;SDS011;49409;55.708;37.522;2022-09-29T02:12:55;5.72;;;2.90;;
63284;SDS011;49409;55.708;37.522;2022-09-29T02:15:24;4.68;;;2.65;;
63284;SDS011;49409;55.708;37.522;2022-09-29T02:17:53;5.30;;;2.70;;
63284;SDS011;49409;55.708;37.522;2022-09-29T02:20:23;5.88;;;2.92;;
63284;SDS011;49409;55.708;37.522;2022-09-29T02:22:49;4.70;;;2.95;;
63284;SDS011;49409;55.708;37.522;2022-09-29T02:25:15;6.10;;;2.70;;
63284;SDS011;49409;55.708;37.522;2022-09-29T02:27:43;5.57;;;2.92;;
63284;SDS011;49409;55.708;37.522;2022-09-29T02:30:11;5.90;;;3.10;;
63284;SDS011;49409;55.708;37.522;2022-09-29T02:32:37;5.45;;;2.80;;
63284;SDS011;49409;55.708;37.522;2022-09-29T02:35:04;6.55;;;3.30;;
63284;SDS011;49409;55.708;37.522;2022-09-29T02:43:20;5.07;;;2.75;;
63284;SDS011;49409;55.708;37.522;2022-09-29T02:48:40;5.88;;;3.00;;
63284;SDS011;49409;55.708;37.522;2022-09-29T02:51:18;6.78;;;2.72;;
63284;SDS011;49409;55.708;37.522;2022-09-29T02:59:19;6.15;;;2.92;;
63284;SDS011;49409;55.708;37.522;2022-09-29T03:01:52;5.60;;;2.85;;
63284;SDS011;49409;55.708;37.522;2022-09-29T03:04:20;5.47;;;3.15;;
63284;SDS011;49409;55.708;37.522;2022-09-29T03:06:47;5.90;;;2.90;;
63284;SDS011;49409;55.708;37.522;2022-09-29T03:09:13;6.00;;;3.00;;
63284;SDS011;49409;55.708;37.522;2022-09-29T03:11:38;4.95;;;2.58;;
63284;SDS011;49409;55.708;37.522;2022-09-29T03:14:04;5.40;;;2.67;;
63284;SDS011;49409;55.708;37.522;2022-09-29T03:16:30;5.50;;;2.83;;
63284;SDS011;49409;55.708;37.522;2022-09-29T03:18:56;5.15;;;2.50;;
63284;SDS011;49409;55.708;37.522;2022-09-29T03:21:22;5.15;;;2.38;;
63284;SDS011;49409;55.708;37.522;2022-09-29T03:23:48;6.63;;;2.88;;
63284;SDS011;49409;55.708;37.522;2022-09-29T03:26:13;4.53;;;2.88;;
63284;SDS011;49409;55.708;37.522;2022-09-29T03:28:39;5.10;;;2.85;;
63284;SDS011;49409;55.708;37.522;2022-09-29T03:31:08;5.13;;;2.78;;
63284;SDS011;49409;55.708;37.522;2022-09-29T03:33:34;5.03;;;3.00;;
63284;SDS011;49409;55.708;37.522;2022-09-29T03:36:02;5.20;;;2.80;;
63284;SDS011;49409;55.708;37.522;2022-09-29T03:38:29;4.93;;;2.83;;
63284;SDS011;49409;55.708;37.522;2022-09-29T03:40:55;6.00;;;3.10;;
63284;SDS011;49409;55.708;37.522;2022-09-29T03:43:21;6.15;;;2.83;;
63284;SDS011;49409;55.708;37.522;2022-09-29T03:45:49;5.47;;;2.72;;
63284;SDS011;49409;55.708;37.522;2022-09-29T03:48:16;6.38;;;3.05;;
63284;SDS011;49409;55.708;37.522;2022-09-29T03:50:45;6.68;;;2.90;;
63284;SDS011;49409;55.708;37.522;2022-09-29T03:53:12;4.95;;;2.85;;
63284;SDS011;49409;55.708;37.522;2022-09-29T03:55:38;5.13;;;2.70;;
63284;SDS011;49409;55.708;37.522;2022-09-29T03:58:04;6.60;;;2.78;;
63284;SDS011;49409;55.708;37.522;2022-09-29T04:00:30;8.50;;;2.90;;
63284;SDS011;49409;55.708;37.522;2022-09-29T04:02:56;4.63;;;2.83;;
63284;SDS011;49409;55.708;37.522;2022-09-29T04:05:21;6.38;;;2.42;;
63284;SDS011;49409;55.708;37.522;2022-09-29T04:07:47;5.07;;;2.65;;
63284;SDS011;49409;55.708;37.522;2022-09-29T04:10:12;5.22;;;2.42;;
63284;SDS011;49409;55.708;37.522;2022-09-29T04:12:38;7.18;;;2.80;;
63284;SDS011;49409;55.708;37.522;2022-09-29T04:15:04;4.70;;;1.95;;
63284;SDS011;49409;55.708;37.522;2022-09-29T04:17:30;5.28;;;2.28;;
63284;SDS011;49409;55.708;37.522;2022-09-29T04:19:55;4.50;;;2.55;;
63284;SDS011;49409;55.708;37.522;2022-09-29T04:22:21;5.63;;;2.40;;
63284;SDS011;49409;55.708;37.522;2022-09-29T04:24:46;5.63;;;3.00;;
63284;SDS011;49409;55.708;37.522;2022-09-29T04:27:12;4.63;;;2.30;;
63284;SDS011;49409;55.708;37.522;2022-09-29T04:29:38;4.60;;;2.53;;
63284;SDS011;49409;55.708;37.522;2022-09-29T04:32:04;7.40;;;3.20;;
63284;SDS011;49409;55.708;37.522;2022-09-29T04:34:30;4.88;;;2.50;;
63284;SDS011;49409;55.708;37.522;2022-09-29T04:36:56;4.43;;;2.50;;
63284;SDS011;49409;55.708;37.522;2022-09-29T04:39:22;4.97;;;2.40;;
63284;SDS011;49409;55.708;37.522;2022-09-29T04:41:47;5.53;;;2.83;;
63284;SDS011;49409;55.708;37.522;2022-09-29T04:44:13;4.28;;;2.28;;
63284;SDS011;49409;55.708;37.522;2022-09-29T04:46:38;4.28;;;2.35;;
63284;SDS011;49409;55.708;37.522;2022-09-29T04:49:04;5.90;;;2.50;;
63284;SDS011;49409;55.708;37.522;2022-09-29T04:51:29;4.20;;;2.10;;
63284;SDS011;49409;55.708;37.522;2022-09-29T04:53:56;4.68;;;2.70;;
63284;SDS011;49409;55.708;37.522;2022-09-29T04:56:22;3.72;;;2.13;;
63284;SDS011;49409;55.708;37.522;2022-09-29T04:58:48;4.30;;;2.38;;
63284;SDS011;49409;55.708;37.522;2022-09-29T05:01:13;4.30;;;2.28;;
63284;SDS011;49409;55.708;37.522;2022-09-29T05:03:39;5.57;;;2.72;;
63284;SDS011;49409;55.708;37.522;2022-09-29T05:06:06;5.13;;;2.40;;
63284;SDS011;49409;55.708;37.522;2022-09-29T05:08:33;4.45;;;2.63;;
63284;SDS011;49409;55.708;37.522;2022-09-29T05:11:01;6.13;;;2.83;;
63284;SDS011;49409;55.708;37.522;2022-09-29T05:13:29;5.80;;;2.80;;
63284;SDS011;49409;55.708;37.522;2022-09-29T05:15:55;4.70;;;2.50;;
63284;SDS011;49409;55.708;37.522;2022-09-29T05:18:21;6.43;;;2.80;;
63284;SDS011;49409;55.708;37.522;2022-09-29T05:20:47;6.35;;;2.83;;
63284;SDS011;49409;55.708;37.522;2022-09-29T05:23:13;5.50;;;2.80;;
63284;SDS011;49409;55.708;37.522;2022-09-29T05:25:39;5.88;;;2.63;;
63284;SDS011;49409;55.708;37.522;2022-09-29T05:28:04;6.22;;;2.88;;
63284;SDS011;49409;55.708;37.522;2022-09-29T05:30:30;5.75;;;2.92;;
63284;SDS011;49409;55.708;37.522;2022-09-29T05:32:55;5.75;;;2.58;;
63284;SDS011;49409;55.708;37.522;2022-09-29T05:35:21;6.25;;;2.97;;
63284;SDS011;49409;55.708;37.522;2022-09-29T05:37:46;6.57;;;3.45;;
63284;SDS011;49409;55.708;37.522;2022-09-29T05:40:12;6.90;;;3.10;;
63284;SDS011;49409;55.708;37.522;2022-09-29T05:42:37;7.88;;;3.33;;
63284;SDS011;49409;55.708;37.522;2022-09-29T05:45:05;6.50;;;3.28;;
63284;SDS011;49409;55.708;37.522;2022-09-29T05:47:32;6.55;;;3.15;;
63284;SDS011;49409;55.708;37.522;2022-09-29T05:49:57;6.85;;;3.20;;
63284;SDS011;49409;55.708;37.522;2022-09-29T05:52:23;8.80;;;3.63;;
63284;SDS011;49409;55.708;37.522;2022-09-29T05:54:48;9.63;;;3.72;;
63284;SDS011;49409;55.708;37.522;2022-09-29T05:57:15;8.98;;;3.75;;
63284;SDS011;49409;55.708;37.522;2022-09-29T05:59:41;10.13;;;4.10;;
63284;SDS011;49409;55.708;37.522;2022-09-29T06:02:07;8.55;;;4.57;;
63284;SDS011;49409;55.708;37.522;2022-09-29T06:04:33;10.98;;;5.20;;
63284;SDS011;49409;55.708;37.522;2022-09-29T06:06:59;10.60;;;5.72;;
63284;SDS011;49409;55.708;37.522;2022-09-29T06:09:25;11.77;;;4.97;;
63284;SDS011;49409;55.708;37.522;2022-09-29T06:11:51;15.32;;;5.78;;
63284;SDS011;49409;55.708;37.522;2022-09-29T06:14:16;11.52;;;5.28;;
63284;SDS011;49409;55.708;37.522;2022-09-29T06:16:42;11.88;;;5.78;;
63284;SDS011;49409;55.708;37.522;2022-09-29T06:19:08;10.73;;;5.50;;
63284;SDS011;49409;55.708;37.522;2022-09-29T06:21:33;11.00;;;5.63;;
63284;SDS011;49409;55.708;37.522;2022-09-29T06:23:59;10.55;;;5.30;;
63284;SDS011;49409;55.708;37.522;2022-09-29T06:26:25;9.77;;;5.07;;
63284;SDS011;49409;55.708;37.522;2022-09-29T06:28:52;10.27;;;5.20;;
63284;SDS011;49409;55.708;37.522;2022-09-29T06:31:19;11.10;;;5.03;;
63284;SDS011;49409;55.708;37.522;2022-09-29T06:33:46;10.05;;;4.93;;
63284;SDS011;49409;55.708;37.522;2022-09-29T06:39:04;9.90;;;4.68;;
63284;SDS011;49409;55.708;37.522;2022-09-29T06:41:31;8.77;;;5.70;;
63284;SDS011;49409;55.708;37.522;2022-09-29T06:43:56;10.63;;;5.45;;
63284;SDS011;49409;55.708;37.522;2022-09-29T06:46:22;10.02;;;5.00;;
63284;SDS011;49409;55.708;37.522;2022-09-29T06:48:47;11.88;;;5.20;;
63284;SDS011;49409;55.708;37.522;2022-09-29T06:51:13;9.10;;;4.82;;
63284;SDS011;49409;55.708;37.522;2022-09-29T06:53:39;8.45;;;4.50;;
63284;SDS011;49409;55.708;37.522;2022-09-29T06:56:05;11.32;;;4.93;;
63284;SDS011;49409;55.708;37.522;2022-09-29T06:58:32;9.15;;;4.18;;
63284;SDS011;49409;55.708;37.522;2022-09-29T07:01:01;7.78;;;4.38;;
63284;SDS011;49409;55.708;37.522;2022-09-29T07:03:28;8.75;;;4.30;;
63284;SDS011;49409;55.708;37.522;2022-09-29T07:05:54;8.48;;;4.60;;
63284;SDS011;49409;55.708;37.522;2022-09-29T07:08:19;9.18;;;4.82;;
63284;SDS011;49409;55.708;37.522;2022-09-29T07:10:45;10.20;;;5.38;;
63284;SDS011;49409;55.708;37.522;2022-09-29T07:13:11;9.27;;;4.30;;
63284;SDS011;49409;55.708;37.522;2022-09-29T07:15:36;8.18;;;4.57;;
63284;SDS011;49409;55.708;37.522;2022-09-29T07:18:02;10.57;;;5.50;;
63284;SDS011;49409;55.708;37.522;2022-09-29T07:20:29;10.60;;;5.10;;
63284;SDS011;49409;55.708;37.522;2022-09-29T07:22:55;13.63;;;5.63;;
63284;SDS011;49409;55.708;37.522;2022-09-29T07:25:21;9.77;;;5.15;;
63284;SDS011;49409;55.708;37.522;2022-09-29T07:27:49;10.65;;;5.43;;
63284;SDS011;49409;55.708;37.522;2022-09-29T07:30:15;10.75;;;5.55;;
63284;SDS011;49409;55.708;37.522;2022-09-29T07:32:42;12.38;;;5.68;;
63284;SDS011;49409;55.708;37.522;2022-09-29T07:35:08;10.20;;;4.95;;
63284;SDS011;49409;55.708;37.522;2022-09-29T07:37:34;10.98;;;5.15;;
63284;SDS011;49409;55.708;37.522;2022-09-29T07:39:59;10.43;;;5.63;;
63284;SDS011;49409;55.708;37.522;2022-09-29T07:42:26;9.98;;;5.35;;
63284;SDS011;49409;55.708;37.522;2022-09-29T07:44:53;9.75;;;5.38;;
63284;SDS011;49409;55.708;37.522;2022-09-29T07:47:19;10.57;;;5.35;;
63284;SDS011;49409;55.708;37.522;2022-09-29T07:49:45;11.25;;;5.97;;
63284;SDS011;49409;55.708;37.522;2022-09-29T07:52:11;13.15;;;6.00;;
63284;SDS011;49409;55.708;37.522;2022-09-29T07:54:37;10.40;;;5.10;;
63284;SDS011;49409;55.708;37.522;2022-09-29T07:57:03;10.13;;;5.38;;
63284;SDS011;49409;55.708;37.522;2022-09-29T07:59:29;11.52;;;4.95;;
63284;SDS011;49409;55.708;37.522;2022-09-29T08:01:55;10.70;;;5.13;;
63284;SDS011;49409;55.708;37.522;2022-09-29T08:04:21;9.55;;;4.47;;
63284;SDS011;49409;55.708;37.522;2022-09-29T08:06:47;13.20;;;5.63;;
63284;SDS011;49409;55.708;37.522;2022-09-29T08:09:13;9.57;;;4.80;;
63284;SDS011;49409;55.708;37.522;2022-09-29T08:11:40;9.52;;;5.18;;
63284;SDS011;49409;55.708;37.522;2022-09-29T08:14:07;10.93;;;5.90;;
63284;SDS011;49409;55.708;37.522;2022-09-29T08:16:34;9.43;;;4.47;;
63284;SDS011;49409;55.708;37.522;2022-09-29T08:19:00;11.32;;;5.80;;
63284;SDS011;49409;55.708;37.522;2022-09-29T08:21:27;10.23;;;5.00;;
63284;SDS011;49409;55.708;37.522;2022-09-29T08:23:53;10.65;;;4.97;;
63284;SDS011;49409;55.708;37.522;2022-09-29T08:26:20;10.38;;;4.85;;
63284;SDS011;49409;55.708;37.522;2022-09-29T08:28:46;10.65;;;4.82;;
63284;SDS011;49409;55.708;37.522;2022-09-29T08:31:14;10.48;;;6.03;;
63284;SDS011;49409;55.708;37.522;2022-09-29T08:33:45;9.27;;;4.60;;
63284;SDS011;49409;55.708;37.522;2022-09-29T08:36:12;10.23;;;4.80;;
63284;SDS011;49409;55.708;37.522;2022-09-29T08:38:42;12.40;;;5.93;;
63284;SDS011;49409;55.708;37.522;2022-09-29T08:41:51;11.45;;;5.88;;
63284;SDS011;49409;55.708;37.522;2022-09-29T08:47:20;9.65;;;4.78;;
63284;SDS011;49409;55.708;37.522;2022-09-29T08:50:10;9.65;;;5.60;;
63284;SDS011;49409;55.708;37.522;2022-09-29T08:52:47;10.32;;;5.45;;
63284;SDS011;49409;55.708;37.522;2022-09-29T08:55:20;10.25;;;4.78;;
63284;SDS011;49409;55.708;37.522;2022-09-29T08:58:00;10.18;;;5.68;;
63284;SDS011;49409;55.708;37.522;2022-09-29T09:00:32;10.05;;;5.50;;
63284;SDS011;49409;55.708;37.522;2022-09-29T09:06:31;10.13;;;5.00;;
63284;SDS011;49409;55.708;37.522;2022-09-29T09:14:29;11.50;;;6.05;;
63284;SDS011;49409;55.708;37.522;2022-09-29T09:17:22;9.70;;;5.37;;
63284;SDS011;49409;55.708;37.522;2022-09-29T09:25:54;10.40;;;5.30;;
63284;SDS011;49409;55.708;37.522;2022-09-29T09:28:26;9.25;;;4.97;;
63284;SDS011;49409;55.708;37.522;2022-09-29T09:39:34;8.50;;;4.40;;
63284;SDS011;49409;55.708;37.522;2022-09-29T09:42:02;9.05;;;5.13;;
63284;SDS011;49409;55.708;37.522;2022-09-29T09:44:39;9.23;;;4.55;;
63284;SDS011;49409;55.708;37.522;2022-09-29T09:47:23;10.38;;;4.95;;
63284;SDS011;49409;55.708;37.522;2022-09-29T09:52:55;10.65;;;4.63;;
63284;SDS011;49409;55.708;37.522;2022-09-29T09:55:29;10.52;;;5.10;;
63284;SDS011;49409;55.708;37.522;2022-09-29T10:00:58;10.10;;;4.80;;
63284;SDS011;49409;55.708;37.522;2022-09-29T10:03:29;8.55;;;5.38;;
63284;SDS011;49409;55.708;37.522;2022-09-29T10:05:55;10.45;;;6.00;;
63284;SDS011;49409;55.708;37.522;2022-09-29T10:08:25;9.35;;;5.05;;
63284;SDS011;49409;55.708;37.522;2022-09-29T10:10:54;9.32;;;4.95;;
63284;SDS011;49409;55.708;37.522;2022-09-29T10:13:21;10.20;;;5.65;;
63284;SDS011;49409;55.708;37.522;2022-09-29T10:16:00;9.63;;;4.90;;
63284;SDS011;49409;55.708;37.522;2022-09-29T10:18:39;8.75;;;5.03;;
63284;SDS011;49409;55.708;37.522;2022-09-29T10:23:57;9.95;;;4.38;;
63284;SDS011;49409;55.708;37.522;2022-09-29T10:26:27;9.75;;;4.80;;
63284;SDS011;49409;55.708;37.522;2022-09-29T10:28:54;9.13;;;4.47;;
63284;SDS011;49409;55.708;37.522;2022-09-29T10:31:29;9.88;;;4.55;;
63284;SDS011;49409;55.708;37.522;2022-09-29T10:34:18;8.88;;;4.88;;
63284;SDS011;49409;55.708;37.522;2022-09-29T10:36:49;9.73;;;5.15;;
63284;SDS011;49409;55.708;37.522;2022-09-29T10:47:41;8.10;;;5.18;;
63284;SDS011;49409;55.708;37.522;2022-09-29T10:50:19;7.95;;;4.38;;
63284;SDS011;49409;55.708;37.522;2022-09-29T10:56:08;10.25;;;5.35;;
63284;SDS011;49409;55.708;37.522;2022-09-29T10:58:41;7.50;;;3.92;;
63284;SDS011;49409;55.708;37.522;2022-09-29T11:01:15;8.55;;;4.07;;
63284;SDS011;49409;55.708;37.522;2022-09-29T11:06:23;9.15;;;4.60;;
63284;SDS011;49409;55.708;37.522;2022-09-29T11:11:31;9.00;;;4.18;;
63284;SDS011;49409;55.708;37.522;2022-09-29T11:13:59;11.18;;;4.97;;
63284;SDS011;49409;55.708;37.522;2022-09-29T11:16:35;9.25;;;4.72;;
63284;SDS011;49409;55.708;37.522;2022-09-29T11:19:09;9.10;;;4.38;;
63284;SDS011;49409;55.708;37.522;2022-09-29T11:33:00;9.27;;;3.80;;
63284;SDS011;49409;55.708;37.522;2022-09-29T11:43:59;8.77;;;4.43;;
63284;SDS011;49409;55.708;37.522;2022-09-29T12:15:09;9.00;;;4.45;;
63284;SDS011;49409;55.708;37.522;2022-09-29T12:17:52;8.57;;;4.45;;
63284;SDS011;49409;55.708;37.522;2022-09-29T12:20:22;8.98;;;4.30;;
63284;SDS011;49409;55.708;37.522;2022-09-29T12:22:51;7.68;;;4.03;;
63284;SDS011;49409;55.708;37.522;2022-09-29T12:25:20;10.13;;;4.30;;
63284;SDS011;49409;55.708;37.522;2022-09-29T12:27:49;10.30;;;4.65;;
63284;SDS011;49409;55.708;37.522;2022-09-29T12:30:23;8.48;;;4.28;;
63284;SDS011;49409;55.708;37.522;2022-09-29T12:41:16;9.40;;;4.28;;
63284;SDS011;49409;55.708;37.522;2022-09-29T12:43:49;9.05;;;4.20;;
63284;SDS011;49409;55.708;37.522;2022-09-29T12:54:13;8.05;;;3.97;;
63284;SDS011;49409;55.708;37.522;2022-09-29T12:59:34;8.50;;;4.47;;
63284;SDS011;49409;55.708;37.522;2022-09-29T13:02:07;8.20;;;4.00;;
63284;SDS011;49409;55.708;37.522;2022-09-29T13:12:40;8.65;;;4.30;;
63284;SDS011;49409;55.708;37.522;2022-09-29T13:18:31;7.68;;;4.07;;
63284;SDS011;49409;55.708;37.522;2022-09-29T13:29:19;7.35;;;4.05;;
63284;SDS011;49409;55.708;37.522;2022-09-29T13:31:48;7.53;;;4.28;;
63284;SDS011;49409;55.708;37.522;2022-09-29T13:36:52;6.88;;;3.63;;
63284;SDS011;49409;55.708;37.522;2022-09-29T13:39:29;7.72;;;3.90;;
63284;SDS011;49409;55.708;37.522;2022-09-29T13:41:55;8.40;;;4.20;;
63284;SDS011;49409;55.708;37.522;2022-09-29T13:44:22;7.40;;;3.88;;
63284;SDS011;49409;55.708;37.522;2022-09-29T13:46:49;8.23;;;4.03;;
63284;SDS011;49409;55.708;37.522;2022-09-29T13:57:04;6.80;;;3.55;;
63284;SDS011;49409;55.708;37.522;2022-09-29T13:59:30;7.88;;;4.03;;
63284;SDS011;49409;55.708;37.522;2022-09-29T14:01:56;8.07;;;3.90;;
63284;SDS011;49409;55.708;37.522;2022-09-29T14:04:33;8.95;;;4.47;;
63284;SDS011;49409;55.708;37.522;2022-09-29T14:07:10;10.55;;;3.97;;
63284;SDS011;49409;55.708;37.522;2022-09-29T14:09:43;7.45;;;3.80;;
63284;SDS011;49409;55.708;37.522;2022-09-29T14:12:19;8.20;;;4.20;;
63284;SDS011;49409;55.708;37.522;2022-09-29T14:14:51;8.45;;;4.13;;
63284;SDS011;49409;55.708;37.522;2022-09-29T14:17:22;7.95;;;3.92;;
63284;SDS011;49409;55.708;37.522;2022-09-29T14:33:01;7.18;;;4.50;;
63284;SDS011;49409;55.708;37.522;2022-09-29T14:38:45;7.68;;;3.47;;
63284;SDS011;49409;55.708;37.522;2022-09-29T14:41:14;8.27;;;4.32;;
63284;SDS011;49409;55.708;37.522;2022-09-29T15:01:12;7.90;;;4.25;;
63284;SDS011;49409;55.708;37.522;2022-09-29T15:03:44;7.95;;;3.97;;
63284;SDS011;49409;55.708;37.522;2022-09-29T15:06:15;7.93;;;4.22;;
63284;SDS011;49409;55.708;37.522;2022-09-29T15:08:59;9.13;;;4.20;;
63284;SDS011;49409;55.708;37.522;2022-09-29T15:11:31;10.43;;;4.77;;
63284;SDS011;49409;55.708;37.522;2022-09-29T15:14:15;7.90;;;4.25;;
63284;SDS011;49409;55.708;37.522;2022-09-29T15:27:33;6.75;;;4.20;;
63284;SDS011;49409;55.708;37.522;2022-09-29T15:30:01;9.15;;;4.65;;
63284;SDS011;49409;55.708;37.522;2022-09-29T15:32:27;8.48;;;4.28;;
63284;SDS011;49409;55.708;37.522;2022-09-29T15:35:04;9.75;;;5.25;;
63284;SDS011;49409;55.708;37.522;2022-09-29T15:40:14;8.60;;;4.80;;
63284;SDS011;49409;55.708;37.522;2022-09-29T15:42:49;9.43;;;5.03;;
63284;SDS011;49409;55.708;37.522;2022-09-29T15:48:02;9.43;;;4.53;;
63284;SDS011;49409;55.708;37.522;2022-09-29T15:50:30;11.15;;;5.22;;
63284;SDS011;49409;55.708;37.522;2022-09-29T15:52:59;9.35;;;5.03;;
63284;SDS011;49409;55.708;37.522;2022-09-29T15:55:26;10.07;;;5.30;;
63284;SDS011;49409;55.708;37.522;2022-09-29T15:57:54;10.15;;;4.88;;
63284;SDS011;49409;55.708;37.522;2022-09-29T16:05:35;10.55;;;5.78;;
63284;SDS011;49409;55.708;37.522;2022-09-29T16:10:47;10.40;;;4.90;;
63284;SDS011;49409;55.708;37.522;2022-09-29T16:13:29;10.07;;;5.07;;
63284;SDS011;49409;55.708;37.522;2022-09-29T16:16:07;8.20;;;4.47;;
63284;SDS011;49409;55.708;37.522;2022-09-29T16:21:03;10.27;;;5.13;;
63284;SDS011;49409;55.708;37.522;2022-09-29T16:23:40;8.43;;;4.75;;
63284;SDS011;49409;55.708;37.522;2022-09-29T16:29:03;11.17;;;5.50;;
63284;SDS011;49409;55.708;37.522;2022-09-29T16:31:37;9.95;;;5.15;;
63284;SDS011;49409;55.708;37.522;2022-09-29T16:34:18;9.88;;;5.03;;
63284;SDS011;49409;55.708;37.522;2022-09-29T16:37:04;11.02;;;5.18;;
63284;SDS011;49409;55.708;37.522;2022-09-29T16:39:45;10.32;;;6.10;;
63284;SDS011;49409;55.708;37.522;2022-09-29T16:42:19;12.23;;;5.85;;
63284;SDS011;49409;55.708;37.522;2022-09-29T16:44:51;10.57;;;5.40;;
63284;SDS011;49409;55.708;37.522;2022-09-29T16:47:21;12.40;;;5.60;;
63284;SDS011;49409;55.708;37.522;2022-09-29T16:52:46;11.27;;;6.18;;
63284;SDS011;49409;55.708;37.522;2022-09-29T16:57:51;11.90;;;6.00;;
63284;SDS011;49409;55.708;37.522;2022-09-29T17:00:19;9.77;;;5.03;;
63284;SDS011;49409;55.708;37.522;2022-09-29T17:02:49;9.95;;;4.80;;
63284;SDS011;49409;55.708;37.522;2022-09-29T17:05:29;10.13;;;5.22;;
63284;SDS011;49409;55.708;37.522;2022-09-29T17:08:00;10.48;;;5.15;;
63284;SDS011;49409;55.708;37.522;2022-09-29T17:10:27;12.60;;;6.55;;
63284;SDS011;49409;55.708;37.522;2022-09-29T17:15:45;10.65;;;6.07;;
63284;SDS011;49409;55.708;37.522;2022-09-29T17:18:14;10.98;;;5.68;;
63284;SDS011;49409;55.708;37.522;2022-09-29T17:20:41;10.40;;;5.13;;
63284;SDS011;49409;55.708;37.522;2022-09-29T17:23:07;10.20;;;5.25;;
63284;SDS011;49409;55.708;37.522;2022-09-29T17:25:33;10.45;;;5.00;;
63284;SDS011;49409;55.708;37.522;2022-09-29T17:28:00;9.65;;;5.28;;
63284;SDS011;49409;55.708;37.522;2022-09-29T17:30:35;10.52;;;5.45;;
63284;SDS011;49409;55.708;37.522;2022-09-29T17:33:00;12.20;;;6.45;;
63284;SDS011;49409;55.708;37.522;2022-09-29T17:35:28;9.95;;;5.38;;
63284;SDS011;49409;55.708;37.522;2022-09-29T17:37:58;9.85;;;4.95;;
63284;SDS011;49409;55.708;37.522;2022-09-29T17:40:32;11.88;;;5.72;;
63284;SDS011;49409;55.708;37.522;2022-09-29T17:43:12;10.15;;;5.72;;
63284;SDS011;49409;55.708;37.522;2022-09-29T17:45:37;11.02;;;5.40;;
63284;SDS011;49409;55.708;37.522;2022-09-29T17:48:07;12.85;;;5.78;;
63284;SDS011;49409;55.708;37.522;2022-09-29T17:50:35;12.07;;;5.07;;
63284;SDS011;49409;55.708;37.522;2022-09-29T17:53:04;8.15;;;4.85;;
63284;SDS011;49409;55.708;37.522;2022-09-29T17:55:31;11.25;;;5.88;;
63284;SDS011;49409;55.708;37.522;2022-09-29T17:57:58;10.48;;;5.50;;
63284;SDS011;49409;55.708;37.522;2022-09-29T18:00:26;9.55;;;5.05;;
63284;SDS011;49409;55.708;37.522;2022-09-29T18:03:06;11.35;;;5.05;;
63284;SDS011;49409;55.708;37.522;2022-09-29T18:05:34;9.45;;;5.22;;
63284;SDS011;49409;55.708;37.522;2022-09-29T18:08:02;10.60;;;5.15;;
63284;SDS011;49409;55.708;37.522;2022-09-29T18:13:21;10.27;;;5.25;;
63284;SDS011;49409;55.708;37.522;2022-09-29T18:15:48;9.40;;;5.55;;
63284;SDS011;49409;55.708;37.522;2022-09-29T18:18:15;10.57;;;5.25;;
63284;SDS011;49409;55.708;37.522;2022-09-29T18:20:43;11.00;;;5.50;;
63284;SDS011;49409;55.708;37.522;2022-09-29T18:23:12;11.20;;;5.53;;
63284;SDS011;49409;55.708;37.522;2022-09-29T18:25:42;10.90;;;5.00;;
63284;SDS011;49409;55.708;37.522;2022-09-29T18:28:09;10.50;;;5.57;;
63284;SDS011;49409;55.708;37.522;2022-09-29T18:30:35;11.25;;;5.68;;
63284;SDS011;49409;55.708;37.522;2022-09-29T18:33:04;11.60;;;5.43;;
63284;SDS011;49409;55.708;37.522;2022-09-29T18:35:33;12.25;;;6.50;;
63284;SDS011;49409;55.708;37.522;2022-09-29T18:38:00;11.52;;;5.70;;
63284;SDS011;49409;55.708;37.522;2022-09-29T18:40:28;11.15;;;5.50;;
63284;SDS011;49409;55.708;37.522;2022-09-29T18:42:55;10.68;;;5.50;;
63284;SDS011;49409;55.708;37.522;2022-09-29T18:45:26;10.65;;;5.53;;
63284;SDS011;49409;55.708;37.522;2022-09-29T18:47:57;12.05;;;5.20;;
63284;SDS011;49409;55.708;37.522;2022-09-29T18:50:26;14.23;;;5.50;;
63284;SDS011;49409;55.708;37.522;2022-09-29T18:52:53;10.93;;;5.50;;
63284;SDS011;49409;55.708;37.522;2022-09-29T18:55:22;8.85;;;5.22;;
63284;SDS011;49409;55.708;37.522;2022-09-29T18:57:49;8.82;;;5.18;;
63284;SDS011;49409;55.708;37.522;2022-09-29T19:00:16;11.60;;;5.65;;
63284;SDS011;49409;55.708;37.522;2022-09-29T19:02:44;9.68;;;5.35;;
63284;SDS011;49409;55.708;37.522;2022-09-29T19:05:15;10.45;;;5.70;;
63284;SDS011;49409;55.708;37.522;2022-09-29T19:07:45;11.35;;;4.95;;
63284;SDS011;49409;55.708;37.522;2022-09-29T19:10:12;10.25;;;5.65;;
63284;SDS011;49409;55.708;37.522;2022-09-29T19:12:39;9.00;;;5.30;;